Time;durP1;ratioP1;P1;durP2;ratioP2;P2;SDS_P1;SDS_P2;PMS_P1;PMS_P2;Temp;Humidity;BMP_temperature;BMP_pressure;BME280_temperature;BME280_humidity;BME280_pressure;Samples;Min_cycle;Max_cycle;Signal;HPM_P1;HPM_P2
2022/10/26 00:00:40;;;;;;;15.18;7.20;;;;;;;12.46;100.00;100434.94;5032517;28;20203;-74
2022/10/26 00:03:08;;;;;;;9.50;7.25;;;;;;;12.47;100.00;100431.28;5023859;28;20218;-74
2022/10/26 00:05:35;;;;;;;10.98;7.75;;;;;;;12.49;100.00;100428.50;5035667;28;20205;-74
2022/10/26 00:08:02;;;;;;;9.73;6.63;;;;;;;12.50;100.00;100427.53;5034898;28;20197;-73
2022/10/26 00:10:29;;;;;;;10.95;7.18;;;;;;;12.46;100.00;100429.53;5034351;28;20205;-74
2022/10/26 00:12:55;;;;;;;11.73;7.88;;;;;;;12.57;100.00;100433.47;5032592;28;20223;-74
2022/10/26 00:15:22;;;;;;;9.30;6.43;;;;;;;12.56;100.00;100432.63;5028290;28;20205;-75
2022/10/26 00:17:50;;;;;;;12.10;7.93;;;;;;;12.52;100.00;100426.50;5014914;28;20203;-73
2022/10/26 00:20:18;;;;;;;13.02;7.00;;;;;;;12.55;100.00;100432.69;5014595;28;20207;-72
2022/10/26 00:22:45;;;;;;;14.13;7.05;;;;;;;12.61;100.00;100432.38;5014879;28;20223;-74
2022/10/26 00:25:11;;;;;;;13.23;7.43;;;;;;;12.57;100.00;100442.44;5017452;28;20202;-74
2022/10/26 00:27:38;;;;;;;14.07;7.35;;;;;;;12.58;100.00;100437.94;5014550;28;20213;-74
2022/10/26 00:30:06;;;;;;;18.90;8.25;;;;;;;12.58;100.00;100435.25;5015476;28;20213;-74
2022/10/26 00:32:33;;;;;;;15.40;8.18;;;;;;;12.60;100.00;100434.22;5014487;28;20218;-73
2022/10/26 00:35:00;;;;;;;13.07;7.10;;;;;;;12.66;100.00;100441.09;5022151;28;20640;-73
2022/10/26 00:37:27;;;;;;;14.73;7.47;;;;;;;12.58;100.00;100433.41;5033910;28;20213;-74
2022/10/26 00:39:54;;;;;;;9.00;7.15;;;;;;;12.65;100.00;100440.22;5034403;28;20205;-75
2022/10/26 00:42:23;;;;;;;14.50;7.43;;;;;;;12.70;100.00;100431.88;5034184;28;20237;-74
2022/10/26 00:45:01;;;;;;;11.75;6.78;;;;;;;12.64;100.00;100433.09;5029575;28;20203;-73
2022/10/26 00:47:40;;;;;;;8.60;7.50;;;;;;;12.63;100.00;100436.72;5014430;28;20273;-74
2022/10/26 00:50:10;;;;;;;13.23;7.20;;;;;;;12.65;100.00;100439.38;5014932;28;20663;-74
2022/10/26 00:52:38;;;;;;;10.85;6.68;;;;;;;12.60;100.00;100434.22;5014355;28;20226;-74
2022/10/26 00:55:07;;;;;;;11.70;7.07;;;;;;;12.70;100.00;100438.16;5015200;28;20653;-74
2022/10/26 00:57:35;;;;;;;8.77;6.95;;;;;;;12.69;100.00;100439.13;5014688;28;20205;-72
2022/10/26 01:00:02;;;;;;;10.85;6.50;;;;;;;12.67;100.00;100438.31;5014475;28;20210;-73
2022/10/26 01:02:28;;;;;;;15.75;6.80;;;;;;;12.76;100.00;100436.97;5016301;28;20245;-73
2022/10/26 01:04:56;;;;;;;13.13;6.85;;;;;;;12.72;100.00;100428.13;5017955;28;20189;-74
2022/10/26 01:07:24;;;;;;;15.40;6.55;;;;;;;12.72;100.00;100430.84;5014784;28;20234;-74
2022/10/26 01:09:53;;;;;;;13.07;7.10;;;;;;;12.73;100.00;100424.50;5019037;28;20202;-73
2022/10/26 01:12:19;;;;;;;12.13;7.13;;;;;;;12.81;100.00;100420.50;5033235;28;20219;-73
2022/10/26 01:14:46;;;;;;;13.50;7.30;;;;;;;12.77;100.00;100425.19;5033222;28;20190;-73
2022/10/26 01:17:27;;;;;;;12.00;6.90;;;;;;;12.75;100.00;100420.81;5036295;28;20209;-74
2022/10/26 01:20:47;;;;;;;10.68;6.72;;;;;;;12.74;100.00;100419.94;5036131;28;20647;-73
2022/10/26 01:23:23;;;;;;;11.48;6.97;;;;;;;12.73;100.00;100415.53;4976994;28;20242;-74
2022/10/26 01:26:08;;;;;;;9.02;6.30;;;;;;;12.75;100.00;100418.13;4976854;28;20210;-73
2022/10/26 01:28:53;;;;;;;9.15;6.75;;;;;;;12.82;100.00;100424.94;4977596;28;20185;-74
2022/10/26 01:31:29;;;;;;;10.68;7.97;;;;;;;12.81;100.00;100415.97;4971132;28;20192;-75
2022/10/26 01:34:02;;;;;;;11.13;7.15;;;;;;;12.77;100.00;100427.88;4958786;29;20228;-74
2022/10/26 01:36:34;;;;;;;10.80;7.05;;;;;;;12.83;100.00;100424.84;4961655;28;20215;-72
2022/10/26 01:39:08;;;;;;;9.27;6.88;;;;;;;12.81;100.00;100418.66;4978206;28;20208;-74
2022/10/26 01:41:39;;;;;;;10.68;7.00;;;;;;;12.80;100.00;100416.03;4972152;28;20200;-73
2022/10/26 01:44:10;;;;;;;10.82;7.70;;;;;;;12.84;100.00;100407.66;4959121;29;20241;-75
2022/10/26 01:46:42;;;;;;;10.30;6.68;;;;;;;12.84;100.00;100410.38;4959083;28;20212;-73
2022/10/26 01:49:11;;;;;;;10.82;6.63;;;;;;;12.87;100.00;100412.94;4959526;29;20191;-73
2022/10/26 01:51:40;;;;;;;9.75;6.25;;;;;;;12.94;100.00;100418.88;4944484;29;20271;-73
2022/10/26 01:54:06;;;;;;;6.22;5.47;;;;;;;12.97;100.00;100418.69;4962920;28;20784;-72
2022/10/26 01:56:38;;;;;;;7.32;6.47;;;;;;;12.96;100.00;100422.38;4978193;28;20656;-73
2022/10/26 01:59:32;;;;;;;9.45;6.47;;;;;;;13.03;100.00;100410.25;4997351;28;20207;-73
2022/10/26 02:02:56;;;;;;;7.45;5.55;;;;;;;13.09;100.00;100401.81;5032297;28;20203;-72
2022/10/26 02:05:43;;;;;;;14.65;6.72;;;;;;;13.03;100.00;100410.25;5031455;28;20274;-73
2022/10/26 02:08:28;;;;;;;9.02;6.20;;;;;;;13.04;100.00;100403.88;5047002;28;20197;-73
2022/10/26 02:11:03;;;;;;;9.45;6.30;;;;;;;13.04;100.00;100400.31;5049486;28;20238;-73
2022/10/26 02:13:38;;;;;;;7.97;5.90;;;;;;;13.05;100.00;100400.22;5045038;28;20293;-74
2022/10/26 02:16:17;;;;;;;9.40;6.30;;;;;;;13.00;100.00;100390.63;5028498;28;20541;-72
2022/10/26 02:18:51;;;;;;;10.07;5.65;;;;;;;12.99;100.00;100399.69;5028055;28;20191;-72
2022/10/26 02:21:22;;;;;;;9.52;6.28;;;;;;;13.00;100.00;100388.81;5018992;28;20203;-73
2022/10/26 02:23:51;;;;;;;11.90;6.43;;;;;;;13.05;100.00;100388.53;5018222;28;20230;-74
2022/10/26 02:26:22;;;;;;;10.45;6.50;;;;;;;13.06;100.00;100393.84;5037131;28;20209;-73
2022/10/26 02:28:53;;;;;;;13.15;6.47;;;;;;;13.05;100.00;100391.25;5039154;28;20268;-74
2022/10/26 02:31:20;;;;;;;9.82;5.80;;;;;;;13.13;100.00;100378.16;5038981;28;20200;-74
2022/10/26 02:33:50;;;;;;;11.45;5.90;;;;;;;13.10;100.00;100379.22;5038514;28;20236;-72
2022/10/26 02:36:23;;;;;;;10.55;6.10;;;;;;;13.15;100.00;100374.41;5037683;28;20194;-73
2022/10/26 02:38:52;;;;;;;9.93;5.95;;;;;;;13.21;100.00;100377.75;5039461;28;20209;-74
2022/10/26 02:41:22;;;;;;;8.25;5.65;;;;;;;13.22;100.00;100371.34;5041880;28;20710;-73
2022/10/26 02:43:54;;;;;;;8.38;5.97;;;;;;;13.25;100.00;100379.28;5042702;28;20229;-74
2022/10/26 02:46:25;;;;;;;10.10;5.80;;;;;;;13.24;100.00;100377.56;5023782;28;20258;-72
2022/10/26 02:48:51;;;;;;;7.93;6.47;;;;;;;13.22;100.00;100372.22;5024398;28;20293;-73
2022/10/26 02:51:25;;;;;;;10.50;6.00;;;;;;;13.19;100.00;100375.13;5025023;28;20213;-74
2022/10/26 02:53:57;;;;;;;8.05;5.43;;;;;;;13.10;100.00;100372.94;5022918;28;20226;-73
2022/10/26 02:56:29;;;;;;;10.70;5.93;;;;;;;13.15;100.00;100366.28;5039727;28;20192;-74
2022/10/26 02:59:02;;;;;;;8.43;5.57;;;;;;;13.12;100.00;100362.91;5040256;28;20644;-75
2022/10/26 03:01:29;;;;;;;10.55;6.20;;;;;;;13.15;100.00;100362.72;5040960;28;20204;-73
2022/10/26 03:03:57;;;;;;;10.27;6.07;;;;;;;13.12;100.00;100352.94;5040223;28;20245;-73
2022/10/26 03:06:26;;;;;;;6.35;5.13;;;;;;;13.13;100.00;100351.97;5025981;28;20191;-73
2022/10/26 03:08:52;;;;;;;7.20;5.60;;;;;;;13.13;100.00;100356.53;5019931;28;20209;-73
2022/10/26 03:11:19;;;;;;;14.98;6.40;;;;;;;13.12;100.00;100355.66;5036564;28;20198;-74
2022/10/26 03:13:45;;;;;;;9.15;5.57;;;;;;;13.18;100.00;100357.13;5039654;28;20222;-73
2022/10/26 03:16:12;;;;;;;7.20;5.22;;;;;;;13.19;100.00;100358.88;5042060;28;20269;-74
2022/10/26 03:18:38;;;;;;;8.35;5.30;;;;;;;13.15;100.00;100370.84;5042208;28;20202;-76
2022/10/26 03:21:05;;;;;;;6.70;5.03;;;;;;;13.19;100.00;100363.44;5043173;28;20221;-73
2022/10/26 03:23:33;;;;;;;9.27;4.82;;;;;;;13.23;100.00;100368.59;5043835;28;20226;-73
2022/10/26 03:26:00;;;;;;;8.23;6.10;;;;;;;13.25;100.00;100369.38;5023615;28;20675;-73
2022/10/26 03:28:26;;;;;;;9.30;5.32;;;;;;;13.25;100.00;100373.88;5022078;28;20209;-74
2022/10/26 03:30:53;;;;;;;9.20;5.32;;;;;;;13.24;100.00;100386.53;5022073;28;20205;-74
2022/10/26 03:33:20;;;;;;;7.97;5.57;;;;;;;13.24;100.00;100386.53;5038972;28;20217;-73
2022/10/26 03:35:46;;;;;;;8.02;4.95;;;;;;;13.23;100.00;100378.50;5039594;28;20208;-73
2022/10/26 03:38:13;;;;;;;15.38;9.43;;;;;;;13.21;100.00;100381.31;5036801;28;20209;-72
2022/10/26 03:40:41;;;;;;;20.15;15.75;;;;;;;13.22;100.00;100374.94;5031562;28;20190;-75
2022/10/26 03:43:07;;;;;;;12.02;7.78;;;;;;;13.21;100.00;100377.75;5017489;28;20231;-73
2022/10/26 03:45:34;;;;;;;8.38;5.68;;;;;;;13.22;100.00;100380.34;5016469;28;20233;-73
2022/10/26 03:48:00;;;;;;;14.38;6.07;;;;;;;13.20;100.00;100375.97;5016510;28;20574;-73
2022/10/26 03:50:27;;;;;;;8.02;5.50;;;;;;;13.19;100.00;100375.13;5017475;28;20203;-72
2022/10/26 03:52:53;;;;;;;7.28;5.10;;;;;;;13.15;100.00;100374.41;5017117;28;20214;-74
2022/10/26 03:55:20;;;;;;;7.88;5.28;;;;;;;13.22;100.00;100380.34;5028428;28;20210;-72
2022/10/26 03:57:48;;;;;;;7.05;5.55;;;;;;;13.17;100.00;100379.72;5036521;28;20237;-73
2022/10/26 04:00:16;;;;;;;7.43;5.50;;;;;;;13.19;100.00;100374.25;5037549;28;20206;-74
2022/10/26 04:02:45;;;;;;;8.75;5.53;;;;;;;13.23;100.00;100364.97;5021367;28;20230;-73
2022/10/26 04:05:12;;;;;;;7.95;5.57;;;;;;;13.15;100.00;100369.00;5034415;28;20212;-73
2022/10/26 04:07:38;;;;;;;7.57;5.15;;;;;;;13.12;100.00;100371.03;5024836;28;20205;-73
2022/10/26 04:10:06;;;;;;;6.82;5.07;;;;;;;13.07;100.00;100365.88;5021194;28;20221;-72
2022/10/26 04:12:32;;;;;;;7.32;4.85;;;;;;;13.04;100.00;100371.44;5035168;28;20211;-72
2022/10/26 04:15:00;;;;;;;10.35;5.90;;;;;;;12.92;100.00;100369.44;5033407;28;20228;-74
2022/10/26 04:17:27;;;;;;;8.23;5.60;;;;;;;12.84;100.00;100363.56;5037977;28;20218;-74
2022/10/26 04:19:53;;;;;;;12.45;5.93;;;;;;;12.76;100.00;100376.66;5037115;28;20208;-73
2022/10/26 04:22:20;;;;;;;13.10;6.20;;;;;;;12.73;100.00;100383.09;5043974;28;20229;-71
2022/10/26 04:24:46;;;;;;;9.57;6.30;;;;;;;12.72;100.00;100390.31;5051498;28;20212;-72
2022/10/26 04:27:13;;;;;;;12.20;5.00;;;;;;;12.72;100.00;100390.31;5049367;28;20205;-73
2022/10/26 04:29:39;;;;;;;12.02;6.43;;;;;;;12.54;100.00;100379.63;5038337;28;20209;-73
2022/10/26 04:32:07;;;;;;;46.90;31.52;;;;;;;12.54;100.00;100383.19;5026029;28;20198;-76
2022/10/26 04:34:35;;;;;;;40.83;28.65;;;;;;;12.57;100.00;100393.81;5026668;28;20230;-75
2022/10/26 04:37:01;;;;;;;27.42;17.65;;;;;;;12.63;100.00;100380.00;5019129;28;20727;-75
2022/10/26 04:39:28;;;;;;;9.43;6.68;;;;;;;12.57;100.00;100377.63;5030302;28;20200;-73
2022/10/26 04:41:54;;;;;;;11.05;5.93;;;;;;;12.58;100.00;100382.09;5044059;28;20198;-73
2022/10/26 04:44:21;;;;;;;9.95;5.88;;;;;;;12.59;100.00;100372.13;5035679;28;20218;-73
2022/10/26 04:46:48;;;;;;;11.68;5.70;;;;;;;12.53;100.00;100378.75;5037121;28;20739;-72
2022/10/26 04:49:16;;;;;;;10.27;5.75;;;;;;;12.53;100.00;100370.66;5036780;28;20216;-73
2022/10/26 04:51:42;;;;;;;6.85;4.90;;;;;;;12.53;100.00;100367.97;5028748;28;20209;-73
2022/10/26 04:54:09;;;;;;;13.77;8.63;;;;;;;12.55;100.00;100376.84;5021796;28;20227;-73
2022/10/26 04:56:36;;;;;;;13.77;9.43;;;;;;;12.55;100.00;100374.16;5040035;28;20206;-74
2022/10/26 04:59:02;;;;;;;23.60;8.05;;;;;;;12.58;100.00;100363.16;5039765;28;20217;-73
2022/10/26 05:01:30;;;;;;;12.70;6.80;;;;;;;12.57;100.00;100366.81;5045191;28;20674;-71
2022/10/26 05:03:57;;;;;;;8.98;5.97;;;;;;;12.49;100.00;100358.28;5048291;28;20310;-73
2022/10/26 05:06:25;;;;;;;8.70;5.72;;;;;;;12.51;100.00;100353.66;5048609;28;20619;-74
2022/10/26 05:08:51;;;;;;;9.82;5.40;;;;;;;12.47;100.00;100360.19;5041080;28;20216;-73
2022/10/26 05:11:18;;;;;;;16.13;11.85;;;;;;;12.50;100.00;100351.91;5040055;28;20569;-73
2022/10/26 05:13:46;;;;;;;17.38;7.82;;;;;;;12.44;100.00;100358.53;5039300;28;20718;-73
2022/10/26 05:16:14;;;;;;;8.48;7.18;;;;;;;12.49;100.00;100356.44;5040800;28;20208;-74
2022/10/26 05:18:40;;;;;;;10.07;6.78;;;;;;;12.54;100.00;100353.47;5041195;28;20213;-73
2022/10/26 05:21:07;;;;;;;10.15;6.68;;;;;;;12.47;100.00;100365.56;5040290;28;20212;-72
2022/10/26 05:23:41;;;;;;;11.50;6.97;;;;;;;12.46;100.00;100366.56;5041903;28;20848;-74
2022/10/26 05:26:08;;;;;;;7.35;5.65;;;;;;;12.45;100.00;100362.09;5041625;28;20212;-73
2022/10/26 05:28:37;;;;;;;9.68;6.10;;;;;;;12.45;100.00;100359.38;5040390;28;20198;-73
2022/10/26 05:31:04;;;;;;;8.48;5.45;;;;;;;12.51;100.00;100369.88;5039594;28;20202;-73
2022/10/26 05:33:30;;;;;;;9.93;5.80;;;;;;;12.39;100.00;100365.09;5037121;28;20266;-74
2022/10/26 05:35:57;;;;;;;11.57;6.45;;;;;;;12.44;100.00;100377.44;5037473;28;20209;-72
2022/10/26 05:38:23;;;;;;;13.20;7.65;;;;;;;12.44;100.00;100369.31;5036559;28;20217;-73
2022/10/26 05:40:53;;;;;;;13.10;6.15;;;;;;;12.40;100.00;100369.56;5037237;28;20221;-76
2022/10/26 05:43:20;;;;;;;11.20;6.35;;;;;;;12.33;100.00;100371.72;5036558;28;20230;-72
2022/10/26 05:45:47;;;;;;;23.38;18.63;;;;;;;12.31;100.00;100381.72;5036480;28;20202;-74
2022/10/26 05:48:14;;;;;;;24.45;15.98;;;;;;;12.27;100.00;100380.13;5036498;28;20213;-73
2022/10/26 05:50:40;;;;;;;29.48;23.55;;;;;;;12.35;100.00;100387.84;5037704;28;20202;-72
2022/10/26 05:53:11;;;;;;;25.77;20.10;;;;;;;12.33;100.00;100384.34;5040369;28;20245;-72
2022/10/26 05:55:38;;;;;;;17.38;10.93;;;;;;;12.35;100.00;100382.44;5037346;28;20198;-73
2022/10/26 05:58:10;;;;;;;23.52;18.05;;;;;;;12.38;100.00;100387.69;5038056;28;20213;-74
2022/10/26 06:00:45;;;;;;;18.52;12.93;;;;;;;12.42;100.00;100392.84;5036026;28;20206;-75
2022/10/26 06:03:21;;;;;;;14.93;7.53;;;;;;;12.38;100.00;100388.53;5035396;28;20229;-73
2022/10/26 06:05:53;;;;;;;11.20;7.43;;;;;;;12.41;100.00;100398.31;5036417;28;20228;-73
2022/10/26 06:08:20;;;;;;;9.93;6.05;;;;;;;12.41;100.00;100391.06;5036859;28;20206;-75
2022/10/26 06:10:47;;;;;;;14.25;6.80;;;;;;;12.48;100.00;100388.91;5036580;28;20697;-74
2022/10/26 06:13:16;;;;;;;8.45;6.10;;;;;;;12.49;100.00;100388.84;5038389;28;20232;-73
2022/10/26 06:15:53;;;;;;;10.40;5.75;;;;;;;12.47;100.00;100395.28;5040516;28;20589;-73
2022/10/26 06:18:34;;;;;;;9.45;6.32;;;;;;;12.62;100.00;100390.91;5039873;28;20186;-74
2022/10/26 06:21:12;;;;;;;11.73;6.60;;;;;;;12.58;100.00;100397.44;5039034;28;20205;-72
2022/10/26 06:23:48;;;;;;;9.82;6.43;;;;;;;12.61;100.00;100402.66;5037994;28;20222;-74
2022/10/26 06:26:28;;;;;;;9.95;6.10;;;;;;;12.60;100.00;100415.28;5041320;28;20186;-72
2022/10/26 06:29:03;;;;;;;7.97;6.32;;;;;;;12.71;100.00;100412.03;5049846;28;20287;-73
2022/10/26 06:31:30;;;;;;;12.48;6.22;;;;;;;12.72;100.00;100420.03;5050057;28;20186;-72
2022/10/26 06:33:59;;;;;;;11.25;6.38;;;;;;;12.81;100.00;100425.91;5047858;28;20234;-73
2022/10/26 06:36:27;;;;;;;9.88;6.20;;;;;;;12.87;100.00;100434.56;5049877;28;20206;-72
2022/10/26 06:38:58;;;;;;;8.30;6.35;;;;;;;12.93;100.00;100441.44;5043678;28;20610;-72
2022/10/26 06:41:26;;;;;;;10.55;5.72;;;;;;;12.97;100.00;100440.31;5036282;28;20292;-73
2022/10/26 06:43:53;;;;;;;8.15;5.15;;;;;;;13.01;100.00;100447.31;5035330;28;20234;-76
2022/10/26 06:46:30;;;;;;;9.65;6.25;;;;;;;12.99;100.00;100454.63;5034868;28;20696;-74
2022/10/26 06:49:06;;;;;;;13.93;6.25;;;;;;;12.89;100.00;100456.09;5035171;28;20596;-72
2022/10/26 06:51:41;;;;;;;9.70;6.32;;;;;;;12.92;100.00;100461.34;5035348;28;20202;-73
2022/10/26 06:54:15;;;;;;;9.95;5.47;;;;;;;12.96;100.00;100470.13;5036643;28;20217;-73
2022/10/26 06:56:44;;;;;;;7.50;4.75;;;;;;;13.04;100.00;100467.91;5039956;28;20186;-75
2022/10/26 06:59:18;;;;;;;12.63;8.02;;;;;;;13.13;100.00;100476.38;5040348;28;20212;-73
2022/10/26 07:01:46;;;;;;;13.82;11.85;;;;;;;13.13;100.00;100479.06;5040430;28;20190;-73
2022/10/26 07:04:13;;;;;;;13.82;9.75;;;;;;;13.22;100.00;100482.25;5039578;28;20232;-73
2022/10/26 07:06:39;;;;;;;17.55;13.70;;;;;;;13.27;100.00;100481.03;5040008;28;20269;-75
2022/10/26 07:09:06;;;;;;;29.67;19.90;;;;;;;13.26;100.00;100470.28;5040584;28;20212;-74
2022/10/26 07:11:32;;;;;;;16.73;12.35;;;;;;;13.31;100.00;100481.75;5035476;28;20206;-73
2022/10/26 07:13:59;;;;;;;9.75;6.25;;;;;;;13.24;100.00;100477.63;5033863;28;20214;-74
2022/10/26 07:16:26;;;;;;;14.60;6.72;;;;;;;13.30;100.00;100489.00;5034591;28;20289;-74
2022/10/26 07:18:54;;;;;;;8.60;6.18;;;;;;;13.34;100.00;100478.88;5034457;28;20213;-73
2022/10/26 07:21:21;;;;;;;10.63;6.03;;;;;;;13.34;100.00;100477.06;5034271;28;20213;-74
2022/10/26 07:23:47;;;;;;;9.02;5.60;;;;;;;13.38;100.00;100477.75;5034928;28;20229;-73
2022/10/26 07:26:14;;;;;;;9.25;5.25;;;;;;;13.42;100.00;100483.88;5034311;28;20206;-74
2022/10/26 07:28:40;;;;;;;11.45;5.18;;;;;;;13.40;100.00;100489.38;5034510;28;20206;-77
2022/10/26 07:31:07;;;;;;;11.13;6.35;;;;;;;13.41;100.00;100496.53;5034240;28;20202;-72
2022/10/26 07:33:33;;;;;;;9.48;5.18;;;;;;;13.48;100.00;100497.94;5033964;28;20229;-74
2022/10/26 07:36:01;;;;;;;8.98;6.05;;;;;;;13.40;100.00;100497.47;5034500;28;20201;-74
2022/10/26 07:38:28;;;;;;;14.27;8.20;;;;;;;13.42;100.00;100506.38;5033965;28;20552;-73
2022/10/26 07:40:54;;;;;;;10.95;5.80;;;;;;;13.52;100.00;100515.75;5034381;28;20301;-73
2022/10/26 07:43:21;;;;;;;8.40;6.20;;;;;;;13.57;100.00;100507.38;5033646;28;20331;-74
2022/10/26 07:45:49;;;;;;;8.18;6.03;;;;;;;13.64;100.00;100518.72;5034219;28;20221;-73
2022/10/26 07:48:15;;;;;;;8.43;5.63;;;;;;;13.79;100.00;100531.38;5034158;28;20212;-72
2022/10/26 07:50:42;;;;;;;10.20;5.60;;;;;;;13.68;100.00;100526.59;5037561;28;20556;-74
2022/10/26 07:53:10;;;;;;;8.43;6.03;;;;;;;13.78;100.00;100532.34;5037358;28;20221;-74
2022/10/26 07:55:37;;;;;;;12.48;7.20;;;;;;;13.88;100.00;100533.56;5034858;28;20220;-73
2022/10/26 07:58:03;;;;;;;13.00;6.43;;;;;;;14.04;100.00;100528.16;5034134;28;20212;-74
2022/10/26 08:00:30;;;;;;;8.45;6.03;;;;;;;14.14;100.00;100536.63;5034124;28;20197;-73
2022/10/26 08:02:57;;;;;;;11.10;6.05;;;;;;;14.21;100.00;100532.59;5033460;28;20222;-73
2022/10/26 08:05:23;;;;;;;9.63;5.75;;;;;;;14.33;100.00;100525.56;5033343;28;20221;-73
2022/10/26 08:07:50;;;;;;;8.77;5.50;;;;;;;14.36;100.00;100528.13;5032971;28;20206;-73
2022/10/26 08:10:18;;;;;;;8.18;6.40;;;;;;;14.38;100.00;100520.75;5033408;28;20206;-73
2022/10/26 08:12:44;;;;;;;7.15;6.03;;;;;;;14.47;100.00;100522.94;5034482;28;20225;-73
2022/10/26 08:15:11;;;;;;;7.82;7.03;;;;;;;14.49;100.00;100520.09;5033819;28;20194;-74
2022/10/26 08:17:37;;;;;;;8.65;6.40;;;;;;;14.69;100.00;100522.53;5033683;28;20197;-73
2022/10/26 08:20:05;;;;;;;9.25;6.57;;;;;;;14.80;100.00;100520.03;5034295;28;20232;-73
2022/10/26 08:22:31;;;;;;;9.50;6.80;;;;;;;15.12;100.00;100519.88;5033198;28;20232;-74
2022/10/26 08:24:58;;;;;;;9.60;6.32;;;;;;;15.27;100.00;100511.75;5033228;28;20686;-73
2022/10/26 08:27:25;;;;;;;10.73;6.57;;;;;;;15.62;100.00;100513.09;5037189;28;20215;-74
2022/10/26 08:29:52;;;;;;;8.95;5.18;;;;;;;15.77;100.00;100507.66;5036729;28;20201;-73
2022/10/26 08:32:18;;;;;;;6.78;5.00;;;;;;;15.68;100.00;100503.69;5037057;28;20221;-74
2022/10/26 08:34:45;;;;;;;9.80;5.75;;;;;;;15.66;100.00;100507.47;5037352;28;20766;-72
2022/10/26 08:37:11;;;;;;;6.32;5.45;;;;;;;15.78;100.00;100501.25;5037830;28;20198;-73
2022/10/26 08:39:38;;;;;;;7.80;4.95;;;;;;;16.00;100.00;100487.13;5037268;28;20202;-72
2022/10/26 08:42:10;;;;;;;10.73;8.15;;;;;;;16.38;100.00;100480.97;5037105;28;20243;-72
2022/10/26 08:44:43;;;;;;;9.48;5.40;;;;;;;16.43;100.00;100476.06;5037636;28;20687;-74
2022/10/26 08:47:17;;;;;;;9.95;5.82;;;;;;;16.60;100.00;100492.09;5037813;28;20273;-73
2022/10/26 08:49:50;;;;;;;9.73;4.90;;;;;;;16.19;100.00;100487.66;5036753;28;20648;-73
2022/10/26 08:52:23;;;;;;;7.10;5.05;;;;;;;16.22;100.00;100492.00;5037218;28;20230;-74
2022/10/26 08:54:53;;;;;;;8.60;5.75;;;;;;;15.99;100.00;100489.00;5037565;28;20198;-73
2022/10/26 08:57:25;;;;;;;7.53;4.78;;;;;;;16.03;100.00;100501.41;5036955;28;20204;-73
2022/10/26 08:59:58;;;;;;;8.77;5.00;;;;;;;16.55;100.00;100502.44;5043774;28;20201;-73
2022/10/26 09:02:24;;;;;;;7.95;5.70;;;;;;;16.36;100.00;100504.66;5046826;28;20218;-72
2022/10/26 09:04:52;;;;;;;9.05;5.30;;;;;;;16.45;100.00;100496.72;5040480;28;20308;-73
2022/10/26 09:07:37;;;;;;;8.20;5.00;;;;;;;16.50;100.00;100503.72;5036913;28;20202;-75
2022/10/26 09:10:15;;;;;;;5.95;5.25;;;;;;;16.28;100.00;100507.91;5039021;28;20645;-74
2022/10/26 09:12:49;;;;;;;9.13;5.40;;;;;;;16.15;100.00;100510.56;5037281;28;20232;-73
2022/10/26 09:15:26;;;;;;;8.15;5.03;;;;;;;16.19;100.00;100508.50;5037142;28;20190;-73
2022/10/26 09:18:05;;;;;;;9.00;5.03;;;;;;;16.34;100.00;100520.19;5045246;28;20747;-73
2022/10/26 09:21:05;;;;;;;6.55;4.95;;;;;;;16.93;100.00;100515.22;5043163;28;20197;-73
2022/10/26 09:23:47;;;;;;;9.68;5.00;;;;;;;18.03;100.00;100514.56;5036765;28;20704;-73
2022/10/26 09:26:17;;;;;;;10.30;4.90;;;;;;;18.69;100.00;100505.94;5041277;28;20206;-74
2022/10/26 09:28:48;;;;;;;7.63;4.40;;;;;;;18.20;100.00;100521.47;5037256;28;20210;-74
2022/10/26 09:31:17;;;;;;;9.23;4.60;;;;;;;17.77;100.00;100537.38;5037389;28;20444;-74
2022/10/26 09:33:44;;;;;;;7.37;4.60;;;;;;;18.32;100.00;100530.59;5036695;28;20788;-74
2022/10/26 09:36:13;;;;;;;9.43;4.60;;;;;;;18.31;100.00;100540.59;5036164;28;20440;-73
2022/10/26 09:38:44;;;;;;;10.55;4.75;;;;;;;17.75;100.00;100536.63;5035301;28;20292;-74
2022/10/26 09:41:19;;;;;;;6.17;4.30;;;;;;;17.51;100.00;100540.16;5036447;28;20665;-73
2022/10/26 09:43:50;;;;;;;10.00;4.47;;;;;;;18.12;100.00;100554.75;5035103;28;20484;-73
2022/10/26 09:46:25;;;;;;;6.77;4.10;;;;;;;18.93;100.00;100541.41;5035820;28;20206;-74
2022/10/26 09:48:55;;;;;;;7.70;4.60;;;;;;;18.65;100.00;100537.16;5035703;28;20436;-74
2022/10/26 09:51:22;;;;;;;6.00;4.47;;;;;;;19.21;100.00;100551.00;5035891;28;20441;-74
2022/10/26 09:53:50;;;;;;;8.13;4.80;;;;;;;20.02;100.00;100549.06;5035707;28;20465;-74
2022/10/26 09:56:17;;;;;;;7.00;4.47;;;;;;;20.33;100.00;100541.03;5036036;28;20819;-73
2022/10/26 09:58:49;;;;;;;4.97;3.83;;;;;;;21.07;100.00;100548.44;5035290;28;20965;-75
2022/10/26 10:01:31;;;;;;;6.40;4.10;;;;;;;21.50;100.00;100544.66;5034865;28;20440;-73
2022/10/26 10:04:18;;;;;;;6.30;4.03;;;;;;;21.27;100.00;100558.50;5035796;28;20898;-72
2022/10/26 10:06:46;;;;;;;7.97;4.13;;;;;;;21.81;100.00;100554.63;5036008;28;20502;-74
2022/10/26 10:09:15;;;;;;;6.00;3.90;;;;;;;21.72;100.00;100547.22;5035847;28;20547;-73
2022/10/26 10:11:45;;;;;;;8.47;3.50;;;;;;;20.67;100.00;100549.13;5036667;28;20467;-73
2022/10/26 10:14:17;;;;;;;5.43;3.70;;;;;;;20.43;100.00;100541.97;5037134;28;20457;-74
2022/10/26 10:16:53;;;;;;;9.57;4.60;;;;;;;18.99;100.00;100554.53;5036383;28;20475;-73
2022/10/26 10:19:23;;;;;;;11.93;5.80;;;;;;;18.16;100.00;100560.88;5035777;28;20427;-73
2022/10/26 10:21:52;;;;;;;6.63;4.27;;;;;;;18.07;100.00;100565.13;5034857;28;20433;-73
2022/10/26 10:24:24;;;;;;;5.70;4.30;;;;;;;18.05;100.00;100569.81;5035240;28;20994;-73
2022/10/26 10:27:02;;;;;;;7.60;4.30;;;;;;;17.91;100.00;100567.25;5035751;28;20433;-75
2022/10/26 10:29:31;;;;;;;8.10;4.90;;;;;;;18.15;100.00;100577.31;5034568;28;20460;-74
2022/10/26 10:32:00;;;;;;;8.23;5.00;;;;;;;18.34;100.00;100566.78;5037337;28;20210;-73
2022/10/26 10:34:27;;;;;;;7.40;4.80;;;;;;;18.78;100.00;100578.06;5035767;28;20476;-74
2022/10/26 10:36:54;;;;;;;5.32;4.35;;;;;;;20.05;100.00;100573.38;5036881;28;20540;-73
2022/10/26 10:39:35;;;;;;;10.50;4.07;;;;;;;21.10;100.00;100579.16;5044074;28;20202;-73
2022/10/26 10:42:03;;;;;;;5.67;4.43;;;;;;;19.75;100.00;100596.78;5043268;28;20429;-73
2022/10/26 10:44:32;;;;;;;7.30;4.00;;;;;;;19.16;100.00;100586.84;5041049;28;20446;-73
2022/10/26 10:47:05;;;;;;;8.90;4.67;;;;;;;18.77;100.00;100593.56;5038960;28;20443;-74
2022/10/26 10:49:32;;;;;;;5.97;4.10;;;;;;;18.98;100.00;100588.28;5035062;28;20440;-76
2022/10/26 10:52:00;;;;;;;6.10;4.33;;;;;;;19.21;100.00;100593.81;5034901;28;20441;-73
2022/10/26 10:54:31;;;;;;;5.73;4.30;;;;;;;19.24;100.00;100588.09;5036211;28;20480;-73
2022/10/26 10:57:12;;;;;;;7.73;4.90;;;;;;;19.10;100.00;100581.00;5035193;28;20429;-73
2022/10/26 10:59:48;;;;;;;17.23;4.70;;;;;;;19.36;100.00;100595.34;5034956;28;20838;-73
2022/10/26 11:02:57;;;;;;;7.13;4.23;;;;;;;20.49;100.00;100601.66;5034777;28;20428;-73
2022/10/26 11:05:33;;;;;;;5.50;3.80;;;;;;;21.90;100.00;100598.66;5034800;28;20469;-74
2022/10/26 11:08:06;;;;;;;9.43;4.00;;;;;;;21.44;100.00;100609.97;5035487;28;20854;-74
2022/10/26 11:10:38;;;;;;;9.70;3.87;;;;;;;21.17;100.00;100615.97;5035569;28;20429;-74
2022/10/26 11:13:10;;;;;;;6.87;4.30;;;;;;;21.65;100.00;100606.34;5034707;28;20465;-73
2022/10/26 11:15:43;;;;;;;5.03;3.33;;;;;;;21.40;100.00;100607.63;5034083;28;20455;-74
2022/10/26 11:18:15;;;;;;;6.87;4.27;;;;;;;21.56;100.00;100610.75;5034291;28;20431;-74
2022/10/26 11:20:47;;;;;;;6.83;3.37;;;;;;;22.02;100.00;100605.78;5034609;28;20436;-75
2022/10/26 11:23:20;;;;;;;6.03;3.60;;;;;;;22.72;100.00;100606.69;5034564;28;20465;-74
2022/10/26 11:25:51;;;;;;;7.73;3.30;;;;;;;23.04;100.00;100608.31;5040396;28;20461;-74
2022/10/26 11:28:27;;;;;;;8.23;3.93;;;;;;;22.24;100.00;100613.81;5039128;28;20801;-73